Aeroporto :
LOGIN :

Iscrizione | Disclaimer

   EN    FR    IT 

 










Sommario :    VFR   VFR Marginale   IFR   IFR Intensivo   IFR Molto Intensivo
Visibilità : 
Base nubi : 
>= 8 km
>= 3000ft
5 / 8 km
1000 / 3000 ft
1500m / 5 km
500 / 1000 ft
800 / 1500m
200 / 500 ft
< 800m
< 200 ft
Simboli :   Temporali  Nebbia  Neve Forte  Precipitazioni Forti  Vento > 20 kt
SIGMETs :   Varie  Temporali  Ghiacco  Turbolenza  Onda orograficha  Ceneri Vulcaniche






- Altitudine del aeroporto : 686 ft
- Codice IATA : URS


UUOK - Vostochny

ULTIMO METAR :
  • 251200Z 28007MPS CAVOK 02/M05 Q1006 R30/090060 NOSIG RMK QFE736/0981

METARs OBSOLETI :
  • 251130Z 29007MPS CAVOK 02/M05 Q1006 R30/090060 NOSIG RMK QFE736/0981
  • 251100Z 28007MPS CAVOK 01/M05 Q1006 R30/090060 NOSIG RMK QFE736/0981
  • 251030Z 29007MPS CAVOK 01/M05 Q1006 R30/750140 NOSIG RMK QFE736/0981
  • 251000Z 28007MPS CAVOK 01/M05 Q1006 R30/750140 NOSIG RMK QFE736/0981
  • 250930Z 29007MPS CAVOK 00/M04 Q1005 R30/750140 NOSIG RMK QFE735/0981

TAF TAF UUOK
Valido dal 25 a 12 ore il 25 a 21 ore UTC


251100Z 2512/2521 27005G10MPS 9999 SCT020
BECMG 2515/2517 22005MPS



MetMap, La meteo Aeronautica in un colpo d'occhio ! - Copyright ORBIFLY Dicembre 2007 - Disclaimer

ORBIFLY MET'MAP TEAM :

Programmazione e sviluppo : Alexandra Zaïnal
Concezione : Baudouin d'Aumeries
Aiuto per la programmazione : Marc-Olivier Méhu
Supporto tecnico e logistico : Manuel Goepfert
Aiuto per la traduzione : Arnaldo La Scala

Contatto : metmap@orbifly.com




FONTI E CREDITI :

   NOAA